Time;durP1;ratioP1;P1;durP2;ratioP2;P2;SDS_P1;SDS_P2;PMS_P1;PMS_P2;Temp;Humidity;BMP_temperature;BMP_pressure;BME280_temperature;BME280_humidity;BME280_pressure;Samples;Min_cycle;Max_cycle;Signal;HPM_P1;HPM_P2
2021/03/22 00:00:48;;;;;;;12.63;6.85;;;4.30;99.90;;;;;;5097553;28;20295;-91
2021/03/22 00:03:17;;;;;;;17.48;8.32;;;4.20;99.90;;;;;;5105744;28;20571;-89
2021/03/22 00:05:44;;;;;;;15.57;7.97;;;4.20;99.90;;;;;;5084745;28;20552;-88
2021/03/22 00:08:10;;;;;;;14.60;8.10;;;4.20;99.90;;;;;;5076591;28;20342;-90
2021/03/22 00:10:40;;;;;;;15.43;6.75;;;4.10;99.90;;;;;;5077090;28;20292;-90
2021/03/22 00:13:07;;;;;;;13.98;6.97;;;4.10;99.90;;;;;;5077286;28;20293;-90
2021/03/22 00:15:36;;;;;;;17.55;8.48;;;4.10;99.90;;;;;;5077067;28;20303;-87
2021/03/22 00:18:05;;;;;;;17.95;9.20;;;4.10;99.90;;;;;;5076747;28;20710;-91
2021/03/22 00:20:32;;;;;;;20.77;8.07;;;4.10;99.90;;;;;;5078495;28;20237;-91
2021/03/22 00:22:59;;;;;;;25.15;8.45;;;4.10;99.90;;;;;;5080595;28;20205;-91
2021/03/22 00:25:26;;;;;;;25.52;8.95;;;4.10;99.90;;;;;;5098360;28;20186;-89
2021/03/22 00:27:52;;;;;;;18.25;12.15;;;4.00;99.90;;;;;;5099103;28;20228;-85
2021/03/22 00:30:22;;;;;;;20.48;9.55;;;4.00;99.90;;;;;;5093417;28;20236;-88
2021/03/22 00:32:49;;;;;;;20.60;7.95;;;4.10;99.90;;;;;;5096793;28;20201;-86
2021/03/22 00:35:15;;;;;;;17.10;7.68;;;4.10;99.90;;;;;;5099086;28;20185;-89
2021/03/22 00:37:43;;;;;;;11.05;8.10;;;4.10;99.90;;;;;;5097745;28;20236;-91
2021/03/22 00:40:11;;;;;;;19.35;7.97;;;4.10;99.90;;;;;;5069295;28;20256;-90
2021/03/22 00:42:38;;;;;;;23.08;8.77;;;4.10;99.90;;;;;;5065373;28;20203;-90
2021/03/22 00:45:05;;;;;;;18.75;8.15;;;4.20;99.90;;;;;;5060298;28;20284;-90
2021/03/22 00:47:36;;;;;;;13.50;7.03;;;4.10;99.90;;;;;;5075049;28;20197;-91
2021/03/22 00:50:03;;;;;;;16.55;6.60;;;4.10;99.90;;;;;;5071382;28;20198;-91
2021/03/22 00:52:31;;;;;;;17.48;6.82;;;4.10;99.90;;;;;;5050711;28;20249;-89
2021/03/22 00:54:58;;;;;;;21.52;8.18;;;4.10;99.90;;;;;;5052107;28;20211;-91
2021/03/22 00:57:25;;;;;;;23.10;7.78;;;4.10;99.90;;;;;;5055329;28;20320;-91
2021/03/22 00:59:51;;;;;;;19.13;7.65;;;4.10;99.90;;;;;;5074840;28;20288;-89
2021/03/22 01:02:17;;;;;;;17.60;8.30;;;4.20;99.90;;;;;;5089849;28;20296;-91
2021/03/22 01:04:44;;;;;;;24.27;8.18;;;4.30;99.90;;;;;;5094110;28;20255;-91
2021/03/22 01:07:10;;;;;;;12.55;6.93;;;4.30;99.90;;;;;;5092810;28;20243;-87
2021/03/22 01:09:37;;;;;;;13.77;7.65;;;4.20;99.90;;;;;;5094176;28;20244;-92
2021/03/22 01:12:05;;;;;;;20.00;7.30;;;4.30;99.90;;;;;;5093865;28;20291;-91
2021/03/22 01:14:32;;;;;;;17.08;7.88;;;4.30;99.90;;;;;;5094030;28;20285;-91
2021/03/22 01:16:58;;;;;;;16.42;7.22;;;4.30;99.90;;;;;;5094090;28;20258;-92
2021/03/22 01:19:27;;;;;;;25.23;7.50;;;4.20;99.90;;;;;;5093228;28;20291;-92
2021/03/22 01:21:56;;;;;;;15.40;6.70;;;4.40;99.90;;;;;;5092798;28;20236;-91
2021/03/22 01:24:26;;;;;;;18.45;7.35;;;4.40;99.90;;;;;;5094080;28;20248;-92
2021/03/22 01:26:55;;;;;;;15.35;5.65;;;4.30;99.90;;;;;;5093889;28;20664;-91
2021/03/22 01:29:25;;;;;;;13.77;4.95;;;4.30;99.90;;;;;;5093612;28;20600;-92
2021/03/22 01:31:56;;;;;;;15.75;5.53;;;4.30;99.90;;;;;;5094486;28;20738;-91
2021/03/22 01:34:23;;;;;;;16.60;6.13;;;4.30;99.90;;;;;;5093024;28;20240;-88
2021/03/22 01:36:49;;;;;;;12.40;6.07;;;4.30;99.90;;;;;;5092713;28;20212;-91
2021/03/22 01:39:19;;;;;;;12.90;4.90;;;4.40;99.90;;;;;;5094405;28;20323;-90
2021/03/22 01:41:55;;;;;;;11.30;5.13;;;4.30;99.90;;;;;;5093673;28;20243;-90
2021/03/22 01:44:26;;;;;;;8.25;4.10;;;4.40;99.90;;;;;;5094317;28;20324;-91
2021/03/22 01:46:55;;;;;;;8.75;5.45;;;4.40;99.90;;;;;;5073494;28;20210;-91
2021/03/22 01:49:24;;;;;;;15.57;5.32;;;4.40;99.90;;;;;;5074001;28;20198;-90
2021/03/22 01:51:50;;;;;;;12.10;4.53;;;5.20;99.90;;;;;;5073750;28;21066;-91
2021/03/22 01:54:18;;;;;;;22.27;7.82;;;4.40;99.90;;;;;;5073580;28;20621;-91
2021/03/22 01:56:50;;;;;;;12.52;5.20;;;4.50;99.90;;;;;;5073680;28;20728;-90
2021/03/22 01:59:23;;;;;;;14.32;6.22;;;4.50;99.90;;;;;;5073232;28;20428;-88
2021/03/22 02:01:53;;;;;;;19.13;5.53;;;4.40;99.90;;;;;;5085565;28;20280;-90
2021/03/22 02:04:21;;;;;;;11.93;5.10;;;4.40;99.90;;;;;;5095647;28;20593;-91
2021/03/22 02:06:48;;;;;;;11.35;5.30;;;4.30;99.90;;;;;;5094876;28;21175;-91
2021/03/22 02:09:15;;;;;;;17.20;6.07;;;4.30;99.90;;;;;;5096152;28;20295;-91
2021/03/22 02:11:42;;;;;;;12.05;5.82;;;4.20;99.90;;;;;;5096078;28;20720;-90
2021/03/22 02:14:11;;;;;;;7.32;4.22;;;4.10;99.90;;;;;;5093659;28;20678;-91
2021/03/22 02:16:48;;;;;;;12.85;5.32;;;4.20;99.90;;;;;;5093249;28;20284;-91
2021/03/22 02:19:43;;;;;;;8.95;4.57;;;4.20;99.90;;;;;;5093034;28;20232;-92
2021/03/22 02:22:41;;;;;;;20.23;6.30;;;4.30;99.90;;;;;;5094832;28;20254;-91
2021/03/22 02:25:23;;;;;;;10.50;4.63;;;4.40;99.90;;;;;;5094875;28;20211;-89
2021/03/22 02:28:14;;;;;;;15.68;5.30;;;4.40;99.90;;;;;;5093202;28;20204;-90
2021/03/22 02:31:17;;;;;;;11.45;6.38;;;4.50;99.90;;;;;;5093071;28;20228;-90
2021/03/22 02:34:11;;;;;;;9.35;4.57;;;4.40;99.90;;;;;;5092851;28;20201;-90
2021/03/22 02:37:04;;;;;;;23.98;4.22;;;4.30;99.90;;;;;;5091893;28;20288;-91
2021/03/22 02:39:35;;;;;;;11.63;4.93;;;4.40;99.90;;;;;;5092022;28;20211;-88
2021/03/22 02:42:06;;;;;;;15.95;5.07;;;4.50;99.90;;;;;;5093357;28;20295;-89
2021/03/22 02:44:35;;;;;;;7.95;4.20;;;4.50;99.90;;;;;;5093309;28;20201;-84
2021/03/22 02:47:06;;;;;;;10.27;4.53;;;4.40;99.90;;;;;;5094314;28;20292;-88
2021/03/22 02:49:40;;;;;;;7.45;3.85;;;4.30;99.90;;;;;;5096745;28;20200;-91
2021/03/22 02:52:20;;;;;;;13.90;4.28;;;4.30;99.90;;;;;;5095110;28;20236;-89
2021/03/22 02:54:54;;;;;;;8.15;4.60;;;4.40;99.90;;;;;;5097659;28;20288;-90
2021/03/22 02:57:26;;;;;;;13.38;4.53;;;4.40;99.90;;;;;;5098576;28;20204;-88
2021/03/22 02:59:58;;;;;;;15.82;4.40;;;4.30;99.90;;;;;;5113405;28;20188;-89
2021/03/22 03:02:28;;;;;;;5.90;2.78;;;4.30;99.90;;;;;;5112868;28;20231;-88
2021/03/22 03:04:55;;;;;;;11.63;3.70;;;4.40;99.90;;;;;;5097017;28;20296;-88
2021/03/22 03:07:24;;;;;;;9.45;3.92;;;4.30;99.90;;;;;;5095221;28;20680;-89
2021/03/22 03:09:51;;;;;;;4.43;3.08;;;4.30;99.90;;;;;;5096460;28;20211;-88
2021/03/22 03:12:20;;;;;;;7.05;3.92;;;4.30;99.90;;;;;;5096025;28;20304;-91
2021/03/22 03:14:49;;;;;;;9.32;4.57;;;4.30;99.90;;;;;;5095738;28;20343;-89
2021/03/22 03:17:15;;;;;;;8.77;3.72;;;4.40;99.90;;;;;;5077432;28;20213;-91
2021/03/22 03:19:42;;;;;;;17.38;3.88;;;4.30;99.90;;;;;;5094563;28;20676;-92
2021/03/22 03:22:10;;;;;;;9.57;3.67;;;4.30;99.90;;;;;;5095347;28;20255;-88
2021/03/22 03:24:38;;;;;;;8.48;2.35;;;4.30;99.90;;;;;;5095828;28;20248;-92
2021/03/22 03:27:05;;;;;;;10.50;3.38;;;4.40;99.90;;;;;;5095100;28;20330;-91
2021/03/22 03:29:31;;;;;;;7.03;2.90;;;4.30;99.90;;;;;;5096119;28;20292;-91
2021/03/22 03:31:58;;;;;;;10.85;2.92;;;4.40;99.90;;;;;;5086644;28;20205;-92
2021/03/22 03:34:24;;;;;;;10.35;3.28;;;4.40;99.90;;;;;;5076577;28;20315;-91
2021/03/22 03:36:51;;;;;;;8.30;2.92;;;4.30;99.90;;;;;;5075915;28;20315;-92
2021/03/22 03:39:18;;;;;;;10.73;3.13;;;4.30;99.90;;;;;;5076147;28;20264;-92
2021/03/22 03:41:45;;;;;;;10.65;3.22;;;4.30;99.90;;;;;;5075233;28;20256;-91
2021/03/22 03:44:13;;;;;;;12.68;2.70;;;4.30;99.90;;;;;;5075476;28;20289;-89
2021/03/22 03:46:40;;;;;;;9.77;3.20;;;4.30;99.90;;;;;;5075723;28;20292;-92
2021/03/22 03:49:07;;;;;;;7.95;2.38;;;4.30;99.90;;;;;;5074677;28;20201;-90
2021/03/22 03:51:35;;;;;;;3.85;2.35;;;4.30;99.90;;;;;;5074773;28;20202;-90
2021/03/22 03:54:01;;;;;;;3.70;2.60;;;4.20;99.90;;;;;;5074832;28;20315;-83
2021/03/22 03:56:29;;;;;;;12.32;3.50;;;4.30;99.90;;;;;;5076101;28;20204;-92
2021/03/22 03:58:56;;;;;;;5.22;1.98;;;4.20;99.90;;;;;;5074878;28;20320;-84
2021/03/22 04:01:23;;;;;;;5.28;1.50;;;4.20;99.90;;;;;;5075634;28;20556;-91
2021/03/22 04:03:49;;;;;;;5.15;1.80;;;4.20;99.90;;;;;;5092645;28;20205;-89
2021/03/22 04:06:17;;;;;;;3.47;2.70;;;4.30;99.90;;;;;;5096000;28;20289;-90
2021/03/22 04:08:47;;;;;;;12.02;2.65;;;4.20;99.90;;;;;;5093929;28;20296;-87
2021/03/22 04:11:17;;;;;;;7.05;2.22;;;4.30;99.90;;;;;;5096495;28;20282;-91
2021/03/22 04:13:44;;;;;;;13.85;3.60;;;4.20;99.90;;;;;;5096410;28;20205;-91
2021/03/22 04:16:13;;;;;;;5.55;1.67;;;4.20;99.90;;;;;;5096726;28;20288;-91
2021/03/22 04:18:40;;;;;;;7.82;1.77;;;4.20;99.90;;;;;;5089228;28;20736;-91
2021/03/22 04:21:11;;;;;;;8.48;2.35;;;4.20;99.90;;;;;;5076332;28;20289;-89
2021/03/22 04:23:40;;;;;;;6.70;2.38;;;4.20;99.80;;;;;;5076984;28;20544;-86
2021/03/22 04:26:06;;;;;;;16.33;2.78;;;4.20;99.60;;;;;;5073006;28;20201;-87
2021/03/22 04:28:33;;;;;;;10.57;1.92;;;4.20;99.90;;;;;;5088605;28;20477;-91
2021/03/22 04:31:01;;;;;;;4.82;1.80;;;4.30;99.80;;;;;;5103209;28;20193;-88
2021/03/22 04:33:28;;;;;;;7.60;2.80;;;4.30;99.80;;;;;;5117001;28;20200;-88
2021/03/22 04:35:55;;;;;;;8.95;2.35;;;4.30;99.80;;;;;;5111601;28;20284;-88
2021/03/22 04:38:21;;;;;;;5.70;1.67;;;4.20;99.90;;;;;;5103706;28;20229;-88
2021/03/22 04:40:48;;;;;;;7.22;2.67;;;4.30;99.90;;;;;;5096639;28;20283;-85
2021/03/22 04:43:15;;;;;;;10.75;2.28;;;4.30;99.90;;;;;;5103897;28;20201;-84
2021/03/22 04:45:42;;;;;;;6.05;3.65;;;4.30;99.90;;;;;;5119074;28;20184;-89
2021/03/22 04:48:10;;;;;;;16.35;2.58;;;4.40;99.90;;;;;;5118731;28;20231;-90
2021/03/22 04:50:37;;;;;;;6.63;1.80;;;4.40;99.90;;;;;;5109057;28;20196;-89
2021/03/22 04:53:04;;;;;;;4.70;2.08;;;4.40;99.90;;;;;;5101975;28;20283;-89
2021/03/22 04:55:30;;;;;;;6.05;2.33;;;4.30;99.90;;;;;;5101571;28;20318;-90
2021/03/22 04:57:57;;;;;;;3.05;2.15;;;4.20;99.90;;;;;;5096710;28;20311;-85
2021/03/22 05:00:25;;;;;;;6.20;2.17;;;4.20;99.90;;;;;;5094482;28;20295;-89
2021/03/22 05:02:52;;;;;;;4.47;2.50;;;4.20;99.90;;;;;;5093609;28;20292;-90
2021/03/22 05:05:19;;;;;;;6.20;1.85;;;4.40;99.90;;;;;;5094065;28;20297;-90
2021/03/22 05:07:45;;;;;;;26.85;9.82;;;4.30;99.90;;;;;;5090069;28;20296;-91
2021/03/22 05:10:18;;;;;;;13.30;4.97;;;4.40;99.90;;;;;;5070638;28;20289;-86
2021/03/22 05:12:44;;;;;;;8.93;3.63;;;4.30;99.90;;;;;;5076468;28;20235;-90
2021/03/22 05:15:12;;;;;;;14.07;3.05;;;4.30;99.90;;;;;;5094177;28;20739;-90
2021/03/22 05:17:38;;;;;;;7.28;4.03;;;4.40;99.90;;;;;;5093796;28;20627;-89
2021/03/22 05:20:06;;;;;;;6.72;2.92;;;4.30;99.90;;;;;;5094940;28;20283;-90
2021/03/22 05:22:33;;;;;;;6.95;4.10;;;4.20;99.90;;;;;;5093944;28;20284;-91
2021/03/22 05:25:00;;;;;;;9.68;2.67;;;4.30;99.90;;;;;;5093340;28;20295;-90
2021/03/22 05:27:26;;;;;;;6.47;2.00;;;4.40;99.90;;;;;;5095095;28;20291;-90
2021/03/22 05:29:53;;;;;;;10.55;2.90;;;4.40;99.90;;;;;;5093789;28;20648;-90
2021/03/22 05:32:30;;;;;;;5.03;2.78;;;4.40;99.90;;;;;;5094881;28;20723;-90
2021/03/22 05:34:56;;;;;;;7.90;2.00;;;4.30;99.90;;;;;;5094408;28;20236;-87
2021/03/22 05:37:24;;;;;;;6.70;2.33;;;4.30;99.90;;;;;;5095252;28;20260;-89
2021/03/22 05:39:51;;;;;;;8.60;2.60;;;4.30;99.90;;;;;;5081730;28;20198;-91
2021/03/22 05:42:30;;;;;;;4.50;2.22;;;4.40;99.90;;;;;;5072963;28;20244;-88
2021/03/22 05:45:02;;;;;;;11.52;3.15;;;4.50;99.90;;;;;;5072936;28;20570;-91
2021/03/22 05:47:35;;;;;;;8.32;3.75;;;4.30;99.90;;;;;;5073753;28;20599;-86
2021/03/22 05:50:10;;;;;;;6.03;1.75;;;4.40;99.90;;;;;;5074104;28;20205;-88
2021/03/22 05:53:12;;;;;;;4.03;2.50;;;4.40;99.90;;;;;;5073488;28;20224;-84
2021/03/22 05:55:52;;;;;;;11.45;2.55;;;4.40;99.90;;;;;;5095934;28;20236;-82
2021/03/22 05:58:41;;;;;;;10.55;2.42;;;4.50;99.90;;;;;;5095696;28;20695;-90
2021/03/22 06:01:26;;;;;;;5.85;2.65;;;4.50;99.90;;;;;;5077646;28;20204;-89
2021/03/22 06:03:56;;;;;;;6.72;2.03;;;4.40;99.90;;;;;;5072711;28;20665;-84
2021/03/22 06:06:27;;;;;;;14.35;3.22;;;4.40;99.90;;;;;;5072399;28;20296;-84
2021/03/22 06:08:58;;;;;;;7.85;2.00;;;4.50;99.90;;;;;;5070725;28;20227;-91
2021/03/22 06:11:47;;;;;;;5.53;1.85;;;4.50;99.90;;;;;;5072948;28;20656;-91
2021/03/22 06:14:22;;;;;;;5.05;2.47;;;4.50;99.90;;;;;;5050674;28;20558;-89
2021/03/22 06:16:55;;;;;;;11.00;2.22;;;4.40;99.90;;;;;;5072848;28;20204;-85
2021/03/22 06:19:22;;;;;;;11.25;2.50;;;4.30;99.90;;;;;;5080171;28;20708;-86
2021/03/22 06:21:50;;;;;;;3.55;2.28;;;4.40;99.90;;;;;;5093771;28;20283;-83
2021/03/22 06:24:19;;;;;;;8.57;3.20;;;4.40;99.90;;;;;;5096191;28;20197;-90
2021/03/22 06:26:47;;;;;;;6.45;2.75;;;4.30;99.90;;;;;;5096841;28;20640;-83
2021/03/22 06:29:21;;;;;;;9.55;2.40;;;4.30;99.90;;;;;;5096529;28;20299;-84
2021/03/22 06:31:50;;;;;;;5.78;2.10;;;4.50;99.90;;;;;;5096105;28;20232;-90
2021/03/22 06:34:21;;;;;;;8.23;2.78;;;4.40;99.90;;;;;;5097081;28;20205;-83
2021/03/22 06:36:48;;;;;;;5.63;1.88;;;4.50;99.90;;;;;;5094987;28;21003;-86
2021/03/22 06:39:15;;;;;;;14.07;2.50;;;4.60;99.90;;;;;;5097030;28;20232;-82
2021/03/22 06:41:48;;;;;;;3.70;1.95;;;4.60;99.90;;;;;;5095435;28;20250;-85
2021/03/22 06:44:20;;;;;;;8.25;2.40;;;4.50;99.90;;;;;;5096425;28;20205;-85
2021/03/22 06:46:58;;;;;;;16.10;3.22;;;4.60;99.90;;;;;;5096606;28;20286;-86
2021/03/22 06:49:26;;;;;;;6.03;2.25;;;4.60;99.90;;;;;;5083397;28;20263;-87
2021/03/22 06:52:01;;;;;;;3.33;1.88;;;4.60;99.90;;;;;;5074902;28;20288;-85
2021/03/22 06:54:39;;;;;;;9.95;3.20;;;4.60;99.90;;;;;;5088663;28;20212;-89
2021/03/22 06:57:12;;;;;;;8.02;2.67;;;4.70;99.90;;;;;;5096472;28;20222;-84
2021/03/22 06:59:39;;;;;;;11.90;2.72;;;4.80;99.90;;;;;;5096059;28;20256;-89
2021/03/22 07:02:20;;;;;;;10.50;3.25;;;4.70;99.90;;;;;;5096471;28;20294;-87
2021/03/22 07:04:47;;;;;;;4.43;2.42;;;4.80;99.90;;;;;;5096597;28;20293;-84
2021/03/22 07:07:17;;;;;;;13.50;2.40;;;4.60;99.90;;;;;;5098572;28;20204;-89
2021/03/22 07:09:47;;;;;;;8.43;3.00;;;4.80;99.90;;;;;;5098128;28;20232;-89
2021/03/22 07:12:29;;;;;;;17.80;5.13;;;4.80;99.90;;;;;;5095932;28;20303;-88
2021/03/22 07:15:22;;;;;;;11.25;3.28;;;4.70;99.90;;;;;;5095559;28;20635;-86
2021/03/22 07:18:01;;;;;;;6.53;2.10;;;4.70;99.90;;;;;;5096149;28;20212;-87
2021/03/22 07:20:28;;;;;;;16.85;4.53;;;4.80;99.90;;;;;;5095959;28;20299;-86
2021/03/22 07:23:09;;;;;;;8.35;4.20;;;4.90;99.90;;;;;;5094796;28;20236;-91
2021/03/22 07:25:40;;;;;;;6.05;2.70;;;5.00;99.90;;;;;;5096332;28;20292;-88
2021/03/22 07:28:16;;;;;;;14.93;3.53;;;5.20;99.90;;;;;;5095221;28;20384;-86
2021/03/22 07:30:57;;;;;;;8.18;2.70;;;5.00;99.90;;;;;;5095586;28;20244;-87
2021/03/22 07:33:36;;;;;;;6.28;2.33;;;5.10;99.90;;;;;;5082097;28;20232;-89
2021/03/22 07:36:20;;;;;;;11.25;3.20;;;5.20;99.90;;;;;;5056302;28;20240;-84
2021/03/22 07:39:11;;;;;;;13.52;2.33;;;5.40;99.90;;;;;;5088028;28;20318;-85
2021/03/22 07:41:45;;;;;;;10.40;3.95;;;5.20;99.90;;;;;;5092860;28;20308;-90
2021/03/22 07:44:34;;;;;;;14.80;2.85;;;5.30;99.90;;;;;;5094772;28;20283;-83
2021/03/22 07:47:15;;;;;;;10.70;3.42;;;5.40;99.90;;;;;;5095049;28;20204;-90
2021/03/22 07:49:53;;;;;;;13.07;3.30;;;5.50;99.90;;;;;;5094587;28;20239;-87
2021/03/22 07:52:34;;;;;;;11.20;4.93;;;5.40;99.90;;;;;;5094577;28;20233;-88
2021/03/22 07:55:27;;;;;;;11.18;3.33;;;5.10;99.90;;;;;;5095440;28;20209;-88
2021/03/22 07:57:58;;;;;;;6.25;3.25;;;5.20;99.90;;;;;;5095832;28;20307;-89
2021/03/22 08:00:34;;;;;;;9.80;3.60;;;5.40;99.90;;;;;;5094635;28;20212;-84
2021/03/22 08:03:31;;;;;;;10.10;2.63;;;5.40;99.90;;;;;;5094589;28;20287;-83
2021/03/22 08:06:18;;;;;;;11.10;3.50;;;5.30;99.90;;;;;;5078190;28;20677;-86
2021/03/22 08:08:56;;;;;;;14.82;2.97;;;5.50;99.90;;;;;;5092790;28;20272;-74
2021/03/22 08:11:35;;;;;;;11.63;3.58;;;5.80;99.90;;;;;;5089675;28;20233;-85
2021/03/22 08:14:11;;;;;;;13.30;3.67;;;5.90;99.90;;;;;;5075965;28;20261;-85
2021/03/22 08:17:04;;;;;;;6.43;2.53;;;6.00;99.90;;;;;;5075785;28;20237;-87
2021/03/22 08:19:38;;;;;;;3.78;1.13;;;6.00;99.90;;;;;;5073688;28;20229;-84
2021/03/22 08:22:13;;;;;;;11.30;3.35;;;5.70;99.90;;;;;;5073279;28;20202;-81
2021/03/22 08:24:49;;;;;;;5.18;1.80;;;5.50;99.90;;;;;;5074558;28;20291;-80
2021/03/22 08:27:19;;;;;;;6.50;1.85;;;5.60;99.90;;;;;;5074268;28;20624;-85
2021/03/22 08:29:54;;;;;;;8.43;3.15;;;5.60;99.90;;;;;;5088247;28;20210;-84
2021/03/22 08:32:35;;;;;;;7.72;2.25;;;5.70;99.90;;;;;;5094588;28;20232;-80
2021/03/22 08:35:08;;;;;;;6.15;4.00;;;5.90;99.90;;;;;;5094664;28;20287;-80
2021/03/22 08:37:40;;;;;;;7.82;2.50;;;6.10;99.90;;;;;;5093444;28;20228;-78
2021/03/22 08:40:13;;;;;;;12.18;3.63;;;6.10;99.60;;;;;;5094629;28;20617;-83
2021/03/22 08:42:47;;;;;;;8.25;2.95;;;6.10;99.90;;;;;;5094131;28;20205;-81
2021/03/22 08:45:24;;;;;;;11.88;2.45;;;6.20;99.70;;;;;;5097334;28;20212;-80
2021/03/22 08:47:57;;;;;;;11.13;2.83;;;6.00;99.90;;;;;;5107570;28;20211;-81
2021/03/22 08:50:25;;;;;;;4.60;2.13;;;6.10;99.90;;;;;;5104030;28;20220;-82
2021/03/22 08:52:56;;;;;;;8.30;2.40;;;6.80;99.90;;;;;;5096851;28;20233;-85
2021/03/22 08:55:26;;;;;;;5.95;2.50;;;6.10;99.90;;;;;;5115052;28;20197;-85
2021/03/22 08:58:02;;;;;;;7.03;3.28;;;6.10;99.90;;;;;;5109841;28;20224;-80
2021/03/22 09:00:37;;;;;;;6.00;2.15;;;6.20;99.90;;;;;;5101915;28;20265;-84
2021/03/22 09:03:21;;;;;;;6.18;2.75;;;6.20;99.90;;;;;;5095623;28;20203;-85
2021/03/22 09:06:09;;;;;;;5.95;2.67;;;6.20;99.90;;;;;;5095237;28;20224;-87
2021/03/22 09:08:37;;;;;;;9.50;3.38;;;6.10;99.90;;;;;;5090438;28;20307;-87
2021/03/22 09:11:16;;;;;;;2.55;1.67;;;6.20;99.70;;;;;;5091635;28;20319;-81
2021/03/22 09:13:53;;;;;;;6.72;2.50;;;6.40;99.90;;;;;;5115129;28;20200;-89
2021/03/22 09:16:41;;;;;;;3.95;2.90;;;6.90;99.50;;;;;;5114449;28;20566;-84
2021/03/22 09:19:40;;;;;;;12.63;2.90;;;7.20;99.00;;;;;;5090495;28;20240;-82
2021/03/22 09:22:46;;;;;;;5.78;2.55;;;7.10;98.30;;;;;;5072246;28;20617;-85
2021/03/22 09:26:00;;;;;;;4.05;2.10;;;7.10;98.30;;;;;;5073355;28;20247;-83
2021/03/22 09:28:58;;;;;;;4.97;2.10;;;6.90;98.00;;;;;;5074701;28;20263;-82
2021/03/22 09:31:50;;;;;;;4.00;2.28;;;6.80;98.50;;;;;;5066515;28;20224;-89
2021/03/22 09:34:50;;;;;;;3.65;1.88;;;6.70;98.30;;;;;;5073717;28;20259;-84
2021/03/22 09:37:40;;;;;;;7.20;2.60;;;6.70;99.90;;;;;;5072694;28;20441;-87
2021/03/22 09:40:09;;;;;;;5.35;2.15;;;6.60;98.70;;;;;;5073503;28;20378;-85
2021/03/22 09:42:39;;;;;;;9.23;1.92;;;6.50;98.50;;;;;;5084193;28;20789;-85
2021/03/22 09:45:22;;;;;;;6.53;3.00;;;6.50;98.50;;;;;;5093329;28;20284;-83
2021/03/22 09:48:05;;;;;;;2.38;1.60;;;6.50;99.00;;;;;;5089844;28;20263;-88
2021/03/22 09:50:34;;;;;;;8.80;2.90;;;6.40;98.90;;;;;;5073298;28;20233;-85
2021/03/22 09:53:20;;;;;;;4.15;1.92;;;6.40;99.20;;;;;;5071642;28;20229;-88
2021/03/22 09:56:04;;;;;;;3.60;1.80;;;6.50;98.60;;;;;;5072423;28;20626;-84
2021/03/22 09:58:38;;;;;;;5.05;2.40;;;6.70;98.30;;;;;;5072527;28;20249;-83
2021/03/22 10:01:12;;;;;;;3.63;1.95;;;7.00;98.10;;;;;;5072700;28;20297;-82
2021/03/22 10:03:46;;;;;;;5.88;1.92;;;7.20;97.40;;;;;;5073362;28;20292;-87
2021/03/22 10:06:41;;;;;;;5.87;2.00;;;7.20;97.90;;;;;;5073860;28;20300;-89
2021/03/22 10:09:13;;;;;;;5.88;2.78;;;7.70;96.40;;;;;;5094565;28;20500;-88
2021/03/22 10:11:43;;;;;;;3.00;2.22;;;7.70;95.60;;;;;;5093860;28;20208;-88
2021/03/22 10:14:30;;;;;;;5.93;2.70;;;7.30;96.00;;;;;;5084791;28;20635;-85
2021/03/22 10:16:59;;;;;;;3.20;1.40;;;7.10;96.30;;;;;;5093334;28;20215;-88
2021/03/22 10:19:32;;;;;;;7.90;2.80;;;6.80;97.00;;;;;;5086773;28;20545;-86
2021/03/22 10:22:03;;;;;;;4.80;2.45;;;6.60;97.30;;;;;;5071663;28;20490;-84
2021/03/22 10:24:36;;;;;;;8.23;2.10;;;6.60;97.40;;;;;;5073353;28;20363;-85
2021/03/22 10:27:18;;;;;;;6.10;2.30;;;6.70;97.90;;;;;;5073257;28;20209;-82
2021/03/22 10:29:46;;;;;;;7.63;2.30;;;6.20;98.20;;;;;;5072638;28;20208;-88
2021/03/22 10:32:17;;;;;;;3.53;1.90;;;6.00;98.90;;;;;;5072638;28;20292;-87
2021/03/22 10:34:47;;;;;;;3.35;3.00;;;6.00;99.40;;;;;;5069168;28;20209;-82
2021/03/22 10:37:22;;;;;;;2.20;2.00;;;6.10;99.30;;;;;;5071166;28;20266;-88
2021/03/22 10:39:49;;;;;;;3.60;1.63;;;6.30;99.30;;;;;;5070510;28;20252;-88
2021/03/22 10:42:37;;;;;;;5.05;2.00;;;6.20;99.10;;;;;;5068305;28;20298;-86
2021/03/22 10:45:28;;;;;;;2.95;1.50;;;6.40;99.10;;;;;;5071992;28;20277;-88
2021/03/22 10:47:57;;;;;;;6.10;2.10;;;6.10;99.00;;;;;;5090090;28;20197;-87
2021/03/22 10:50:26;;;;;;;4.53;3.17;;;6.10;98.90;;;;;;5096017;28;20334;-85
2021/03/22 10:53:04;;;;;;;9.27;2.97;;;6.30;98.90;;;;;;5091975;28;20319;-85
2021/03/22 10:55:32;;;;;;;5.47;2.78;;;6.30;98.90;;;;;;5073174;28;20233;-88
2021/03/22 10:57:59;;;;;;;2.35;2.15;;;6.30;98.70;;;;;;5072787;28;20210;-83
2021/03/22 11:00:30;;;;;;;6.88;2.45;;;6.30;98.80;;;;;;5072307;28;20305;-88
2021/03/22 11:02:58;;;;;;;7.53;2.35;;;6.40;98.90;;;;;;5087424;28;20233;-86
2021/03/22 11:05:30;;;;;;;5.07;1.63;;;6.60;98.50;;;;;;5092954;28;20240;-83
2021/03/22 11:08:01;;;;;;;7.65;2.65;;;6.70;98.30;;;;;;5093556;28;20239;-87
2021/03/22 11:10:28;;;;;;;2.95;1.80;;;6.80;98.30;;;;;;5096723;28;20683;-89
2021/03/22 11:12:54;;;;;;;2.83;1.75;;;7.00;98.30;;;;;;5096415;28;20549;-88
2021/03/22 11:15:25;;;;;;;4.38;1.80;;;7.10;98.00;;;;;;5095975;28;20632;-83
2021/03/22 11:17:53;;;;;;;3.30;1.30;;;6.90;97.30;;;;;;5096116;28;20349;-85
2021/03/22 11:20:21;;;;;;;4.00;1.95;;;7.00;97.80;;;;;;5095851;28;20323;-84
2021/03/22 11:22:49;;;;;;;5.93;2.15;;;7.30;97.10;;;;;;5094931;28;20288;-88
2021/03/22 11:25:36;;;;;;;7.88;2.33;;;7.30;97.00;;;;;;5083038;28;20202;-85
2021/03/22 11:28:06;;;;;;;5.15;1.90;;;7.30;97.30;;;;;;5077246;28;20205;-85
2021/03/22 11:30:36;;;;;;;2.75;1.85;;;7.60;97.10;;;;;;5075566;28;20307;-88
2021/03/22 11:33:12;;;;;;;4.38;2.03;;;7.60;96.80;;;;;;5075459;28;20703;-83
2021/03/22 11:35:39;;;;;;;5.10;2.40;;;7.70;96.80;;;;;;5075060;28;20296;-85
2021/03/22 11:38:05;;;;;;;4.93;2.10;;;7.40;96.80;;;;;;5081668;28;20245;-85
2021/03/22 11:40:33;;;;;;;1.73;1.40;;;7.70;97.20;;;;;;5075476;28;20497;-88
2021/03/22 11:43:01;;;;;;;5.37;2.33;;;8.10;96.70;;;;;;5089178;28;20545;-85
2021/03/22 11:45:36;;;;;;;3.80;1.80;;;8.00;96.00;;;;;;5094797;28;20455;-85
2021/03/22 11:48:03;;;;;;;4.27;1.77;;;8.10;96.10;;;;;;5095167;28;20469;-88
2021/03/22 11:50:43;;;;;;;2.63;1.60;;;7.90;96.10;;;;;;5095005;28;20549;-84
2021/03/22 11:53:14;;;;;;;6.80;2.73;;;8.00;96.20;;;;;;5093584;28;20479;-83
2021/03/22 11:55:44;;;;;;;8.20;2.20;;;7.70;95.70;;;;;;5094994;28;20454;-86
2021/03/22 11:58:33;;;;;;;2.87;1.80;;;7.40;96.20;;;;;;5094497;28;20534;-87
2021/03/22 12:01:18;;;;;;;2.10;1.40;;;7.40;96.50;;;;;;5095257;28;20820;-84
2021/03/22 12:03:45;;;;;;;7.43;1.50;;;7.40;96.50;;;;;;5094929;28;20462;-89
2021/03/22 12:06:15;;;;;;;7.47;2.60;;;7.20;96.40;;;;;;5096317;28;20455;-87
2021/03/22 12:08:44;;;;;;;3.20;2.08;;;7.30;96.60;;;;;;5095939;28;20940;-85
2021/03/22 12:11:15;;;;;;;4.57;2.17;;;7.40;96.50;;;;;;5096863;28;20205;-86
2021/03/22 12:13:42;;;;;;;4.30;1.90;;;7.20;96.90;;;;;;5095006;28;20858;-88
2021/03/22 12:16:09;;;;;;;5.97;1.90;;;7.20;96.70;;;;;;5095057;28;20308;-90
2021/03/22 12:18:37;;;;;;;2.43;1.60;;;7.20;96.40;;;;;;5093913;28;20858;-85
2021/03/22 12:21:08;;;;;;;6.13;2.00;;;7.30;96.40;;;;;;5094540;28;20969;-83
2021/03/22 12:23:35;;;;;;;8.25;1.77;;;7.20;96.40;;;;;;5093473;28;20538;-81
2021/03/22 12:26:02;;;;;;;4.67;2.27;;;7.30;96.40;;;;;;5094817;28;20212;-86
2021/03/22 12:28:29;;;;;;;4.33;1.67;;;7.20;96.50;;;;;;5093744;28;20872;-86
2021/03/22 12:30:56;;;;;;;6.30;2.03;;;7.20;96.80;;;;;;5094768;28;20443;-86
2021/03/22 12:33:25;;;;;;;2.30;1.70;;;7.00;97.10;;;;;;5094984;28;20250;-90
2021/03/22 12:35:52;;;;;;;1.90;1.50;;;6.80;97.40;;;;;;5095084;28;20515;-85
2021/03/22 12:38:19;;;;;;;14.10;2.72;;;7.00;97.70;;;;;;5093562;28;20229;-86
2021/03/22 12:40:46;;;;;;;5.20;2.38;;;7.10;97.40;;;;;;5094653;28;20628;-81
2021/03/22 12:43:22;;;;;;;3.88;2.13;;;7.20;97.40;;;;;;5093715;28;20254;-86
2021/03/22 12:45:48;;;;;;;9.18;2.42;;;7.20;97.50;;;;;;5094738;28;20204;-86
2021/03/22 12:48:16;;;;;;;6.53;2.53;;;7.40;96.80;;;;;;5098556;28;20296;-84
2021/03/22 12:50:44;;;;;;;3.90;2.03;;;7.30;97.20;;;;;;5115095;28;20204;-89
2021/03/22 12:53:13;;;;;;;3.50;2.13;;;7.40;97.20;;;;;;5106517;28;20475;-87
2021/03/22 12:55:40;;;;;;;7.72;2.22;;;7.40;96.70;;;;;;5098856;28;20452;-85
2021/03/22 12:58:16;;;;;;;1.48;1.35;;;7.40;97.30;;;;;;5113261;28;20216;-82
2021/03/22 13:00:43;;;;;;;4.30;3.30;;;7.40;96.90;;;;;;5113584;28;20211;-88
2021/03/22 13:03:13;;;;;;;13.68;2.88;;;7.90;97.80;;;;;;5093679;28;20534;-87
2021/03/22 13:05:39;;;;;;;2.43;1.70;;;7.10;97.30;;;;;;5078835;28;20225;-89
2021/03/22 13:08:05;;;;;;;3.67;2.05;;;6.90;97.70;;;;;;5073897;28;20825;-85
2021/03/22 13:10:33;;;;;;;4.50;2.20;;;6.80;98.00;;;;;;5087388;28;20354;-90
2021/03/22 13:13:00;;;;;;;8.70;2.78;;;6.90;98.40;;;;;;5093745;28;20885;-90
2021/03/22 13:15:33;;;;;;;7.38;2.75;;;7.10;97.90;;;;;;5094974;28;20638;-87
2021/03/22 13:18:00;;;;;;;6.45;2.80;;;7.30;97.90;;;;;;5093492;28;20239;-85
2021/03/22 13:20:29;;;;;;;2.25;1.75;;;7.50;97.30;;;;;;5092536;28;20237;-82